sensor_id;sensor_type;location;lat;lon;timestamp;P1;durP1;ratioP1;P2;durP2;ratioP2
35558;SDS011;21661;50.794;-1.066;2023-05-07T00:00:20;27.45;;;15.38;;
35558;SDS011;21661;50.794;-1.066;2023-05-07T00:02:46;27.00;;;14.45;;
35558;SDS011;21661;50.794;-1.066;2023-05-07T00:05:12;30.52;;;17.80;;
35558;SDS011;21661;50.794;-1.066;2023-05-07T00:07:38;29.17;;;15.57;;
35558;SDS011;21661;50.794;-1.066;2023-05-07T00:10:04;33.30;;;18.73;;
35558;SDS011;21661;50.794;-1.066;2023-05-07T00:12:31;24.23;;;15.32;;
35558;SDS011;21661;50.794;-1.066;2023-05-07T00:14:59;28.05;;;17.00;;
35558;SDS011;21661;50.794;-1.066;2023-05-07T00:17:25;26.50;;;17.35;;
35558;SDS011;21661;50.794;-1.066;2023-05-07T00:19:51;30.92;;;19.25;;
35558;SDS011;21661;50.794;-1.066;2023-05-07T00:22:16;29.88;;;18.70;;
35558;SDS011;21661;50.794;-1.066;2023-05-07T00:24:42;33.78;;;20.02;;
35558;SDS011;21661;50.794;-1.066;2023-05-07T00:27:07;28.10;;;16.40;;
35558;SDS011;21661;50.794;-1.066;2023-05-07T00:29:33;27.73;;;17.17;;
35558;SDS011;21661;50.794;-1.066;2023-05-07T00:31:59;33.03;;;19.05;;
35558;SDS011;21661;50.794;-1.066;2023-05-07T00:34:24;35.22;;;17.75;;
35558;SDS011;21661;50.794;-1.066;2023-05-07T00:36:50;24.95;;;14.70;;
35558;SDS011;21661;50.794;-1.066;2023-05-07T00:39:16;30.58;;;16.42;;
35558;SDS011;21661;50.794;-1.066;2023-05-07T00:41:41;32.88;;;18.83;;
35558;SDS011;21661;50.794;-1.066;2023-05-07T00:44:07;29.25;;;16.50;;
35558;SDS011;21661;50.794;-1.066;2023-05-07T00:46:33;31.60;;;16.40;;
35558;SDS011;21661;50.794;-1.066;2023-05-07T00:48:59;30.02;;;16.27;;
35558;SDS011;21661;50.794;-1.066;2023-05-07T00:51:25;29.70;;;16.02;;
35558;SDS011;21661;50.794;-1.066;2023-05-07T00:53:52;31.92;;;15.13;;
35558;SDS011;21661;50.794;-1.066;2023-05-07T00:56:18;27.58;;;14.50;;
35558;SDS011;21661;50.794;-1.066;2023-05-07T00:58:48;30.80;;;14.95;;
35558;SDS011;21661;50.794;-1.066;2023-05-07T01:01:14;33.13;;;16.75;;
35558;SDS011;21661;50.794;-1.066;2023-05-07T01:03:42;32.35;;;14.73;;
35558;SDS011;21661;50.794;-1.066;2023-05-07T01:06:08;30.63;;;15.48;;
35558;SDS011;21661;50.794;-1.066;2023-05-07T01:08:37;34.10;;;14.20;;
35558;SDS011;21661;50.794;-1.066;2023-05-07T01:11:04;28.77;;;13.85;;
35558;SDS011;21661;50.794;-1.066;2023-05-07T01:13:31;33.13;;;14.50;;
35558;SDS011;21661;50.794;-1.066;2023-05-07T01:15:58;31.98;;;14.50;;
35558;SDS011;21661;50.794;-1.066;2023-05-07T01:18:24;49.70;;;16.67;;
35558;SDS011;21661;50.794;-1.066;2023-05-07T01:20:51;35.92;;;15.38;;
35558;SDS011;21661;50.794;-1.066;2023-05-07T01:23:16;36.08;;;15.10;;
35558;SDS011;21661;50.794;-1.066;2023-05-07T01:25:43;31.55;;;14.65;;
35558;SDS011;21661;50.794;-1.066;2023-05-07T01:28:16;39.67;;;14.88;;
35558;SDS011;21661;50.794;-1.066;2023-05-07T01:30:42;36.83;;;14.82;;
35558;SDS011;21661;50.794;-1.066;2023-05-07T01:33:12;34.95;;;14.63;;
35558;SDS011;21661;50.794;-1.066;2023-05-07T01:35:41;30.50;;;13.70;;
35558;SDS011;21661;50.794;-1.066;2023-05-07T01:38:10;28.65;;;13.40;;
35558;SDS011;21661;50.794;-1.066;2023-05-07T01:40:37;39.05;;;15.35;;
35558;SDS011;21661;50.794;-1.066;2023-05-07T01:43:02;35.20;;;15.02;;
35558;SDS011;21661;50.794;-1.066;2023-05-07T01:45:30;31.48;;;13.88;;
35558;SDS011;21661;50.794;-1.066;2023-05-07T01:47:56;38.33;;;16.05;;
35558;SDS011;21661;50.794;-1.066;2023-05-07T01:50:23;38.22;;;16.13;;
35558;SDS011;21661;50.794;-1.066;2023-05-07T01:52:50;35.33;;;15.93;;
35558;SDS011;21661;50.794;-1.066;2023-05-07T01:55:17;42.72;;;16.70;;
35558;SDS011;21661;50.794;-1.066;2023-05-07T01:57:43;38.33;;;15.77;;
35558;SDS011;21661;50.794;-1.066;2023-05-07T02:00:08;33.90;;;14.77;;
35558;SDS011;21661;50.794;-1.066;2023-05-07T02:02:34;30.67;;;14.23;;
35558;SDS011;21661;50.794;-1.066;2023-05-07T02:05:00;32.97;;;14.23;;
35558;SDS011;21661;50.794;-1.066;2023-05-07T02:07:27;32.53;;;14.45;;
35558;SDS011;21661;50.794;-1.066;2023-05-07T02:09:53;30.95;;;13.75;;
35558;SDS011;21661;50.794;-1.066;2023-05-07T02:12:20;24.98;;;11.55;;
35558;SDS011;21661;50.794;-1.066;2023-05-07T02:14:46;24.20;;;11.23;;
35558;SDS011;21661;50.794;-1.066;2023-05-07T02:17:11;28.10;;;12.38;;
35558;SDS011;21661;50.794;-1.066;2023-05-07T02:19:37;26.35;;;12.20;;
35558;SDS011;21661;50.794;-1.066;2023-05-07T02:22:03;25.63;;;11.77;;
35558;SDS011;21661;50.794;-1.066;2023-05-07T02:24:28;22.55;;;10.73;;
35558;SDS011;21661;50.794;-1.066;2023-05-07T02:26:54;19.95;;;10.75;;
35558;SDS011;21661;50.794;-1.066;2023-05-07T02:29:20;21.55;;;10.40;;
35558;SDS011;21661;50.794;-1.066;2023-05-07T02:31:46;18.50;;;9.82;;
35558;SDS011;21661;50.794;-1.066;2023-05-07T02:34:15;21.50;;;10.27;;
35558;SDS011;21661;50.794;-1.066;2023-05-07T02:36:44;21.58;;;11.43;;
35558;SDS011;21661;50.794;-1.066;2023-05-07T02:39:10;21.20;;;11.10;;
35558;SDS011;21661;50.794;-1.066;2023-05-07T02:41:37;21.00;;;10.85;;
35558;SDS011;21661;50.794;-1.066;2023-05-07T02:44:02;22.38;;;11.88;;
35558;SDS011;21661;50.794;-1.066;2023-05-07T02:46:28;21.83;;;11.18;;
35558;SDS011;21661;50.794;-1.066;2023-05-07T02:48:54;21.65;;;11.25;;
35558;SDS011;21661;50.794;-1.066;2023-05-07T02:51:20;23.45;;;11.50;;
35558;SDS011;21661;50.794;-1.066;2023-05-07T02:53:47;23.02;;;11.75;;
35558;SDS011;21661;50.794;-1.066;2023-05-07T02:56:12;22.17;;;12.25;;
35558;SDS011;21661;50.794;-1.066;2023-05-07T02:58:38;24.15;;;13.45;;
35558;SDS011;21661;50.794;-1.066;2023-05-07T03:01:04;24.02;;;12.75;;
35558;SDS011;21661;50.794;-1.066;2023-05-07T03:03:30;26.83;;;12.38;;
35558;SDS011;21661;50.794;-1.066;2023-05-07T03:05:56;24.10;;;12.65;;
35558;SDS011;21661;50.794;-1.066;2023-05-07T03:08:22;22.58;;;13.23;;
35558;SDS011;21661;50.794;-1.066;2023-05-07T03:10:48;23.00;;;12.85;;
35558;SDS011;21661;50.794;-1.066;2023-05-07T03:13:13;23.70;;;13.40;;
35558;SDS011;21661;50.794;-1.066;2023-05-07T03:15:39;23.98;;;13.23;;
35558;SDS011;21661;50.794;-1.066;2023-05-07T03:18:05;24.17;;;12.90;;
35558;SDS011;21661;50.794;-1.066;2023-05-07T03:20:31;28.98;;;14.80;;
35558;SDS011;21661;50.794;-1.066;2023-05-07T03:22:57;26.17;;;14.18;;
35558;SDS011;21661;50.794;-1.066;2023-05-07T03:25:22;28.67;;;14.98;;
35558;SDS011;21661;50.794;-1.066;2023-05-07T03:27:48;30.80;;;15.25;;
35558;SDS011;21661;50.794;-1.066;2023-05-07T03:30:14;28.17;;;14.35;;
35558;SDS011;21661;50.794;-1.066;2023-05-07T03:32:39;30.17;;;14.82;;
35558;SDS011;21661;50.794;-1.066;2023-05-07T03:35:05;29.88;;;14.75;;
35558;SDS011;21661;50.794;-1.066;2023-05-07T03:37:31;30.30;;;15.02;;
35558;SDS011;21661;50.794;-1.066;2023-05-07T03:39:57;30.38;;;13.80;;
35558;SDS011;21661;50.794;-1.066;2023-05-07T03:42:23;22.70;;;11.65;;
35558;SDS011;21661;50.794;-1.066;2023-05-07T03:44:49;26.23;;;12.35;;
35558;SDS011;21661;50.794;-1.066;2023-05-07T03:47:14;23.20;;;11.73;;
35558;SDS011;21661;50.794;-1.066;2023-05-07T03:49:40;24.63;;;12.48;;
35558;SDS011;21661;50.794;-1.066;2023-05-07T03:52:06;26.13;;;13.10;;
35558;SDS011;21661;50.794;-1.066;2023-05-07T03:54:31;27.65;;;13.70;;
35558;SDS011;21661;50.794;-1.066;2023-05-07T03:56:57;29.23;;;15.10;;
35558;SDS011;21661;50.794;-1.066;2023-05-07T03:59:22;30.23;;;15.20;;
35558;SDS011;21661;50.794;-1.066;2023-05-07T04:01:48;31.02;;;15.98;;
35558;SDS011;21661;50.794;-1.066;2023-05-07T04:04:14;33.47;;;16.45;;
35558;SDS011;21661;50.794;-1.066;2023-05-07T04:06:40;32.85;;;16.38;;
35558;SDS011;21661;50.794;-1.066;2023-05-07T04:09:06;38.10;;;18.45;;
35558;SDS011;21661;50.794;-1.066;2023-05-07T04:11:31;39.67;;;19.73;;
35558;SDS011;21661;50.794;-1.066;2023-05-07T04:13:57;37.58;;;19.00;;
35558;SDS011;21661;50.794;-1.066;2023-05-07T04:16:23;42.75;;;20.45;;
35558;SDS011;21661;50.794;-1.066;2023-05-07T04:18:48;39.85;;;20.90;;
35558;SDS011;21661;50.794;-1.066;2023-05-07T04:21:17;43.42;;;20.80;;
35558;SDS011;21661;50.794;-1.066;2023-05-07T04:23:44;48.05;;;20.02;;
35558;SDS011;21661;50.794;-1.066;2023-05-07T04:26:10;47.35;;;21.05;;
35558;SDS011;21661;50.794;-1.066;2023-05-07T04:28:36;41.05;;;18.95;;
35558;SDS011;21661;50.794;-1.066;2023-05-07T04:31:02;41.05;;;17.83;;
35558;SDS011;21661;50.794;-1.066;2023-05-07T04:33:27;40.53;;;17.52;;
35558;SDS011;21661;50.794;-1.066;2023-05-07T04:35:53;42.63;;;18.63;;
35558;SDS011;21661;50.794;-1.066;2023-05-07T04:38:18;41.40;;;18.05;;
35558;SDS011;21661;50.794;-1.066;2023-05-07T04:40:44;42.33;;;17.20;;
35558;SDS011;21661;50.794;-1.066;2023-05-07T04:43:11;35.80;;;16.52;;
35558;SDS011;21661;50.794;-1.066;2023-05-07T04:45:36;38.80;;;16.30;;
35558;SDS011;21661;50.794;-1.066;2023-05-07T04:48:02;35.00;;;15.73;;
35558;SDS011;21661;50.794;-1.066;2023-05-07T04:50:28;38.20;;;14.80;;
35558;SDS011;21661;50.794;-1.066;2023-05-07T04:52:54;35.38;;;16.35;;
35558;SDS011;21661;50.794;-1.066;2023-05-07T04:55:19;34.67;;;16.52;;
35558;SDS011;21661;50.794;-1.066;2023-05-07T04:57:45;40.40;;;17.80;;
35558;SDS011;21661;50.794;-1.066;2023-05-07T05:00:11;43.45;;;17.17;;
35558;SDS011;21661;50.794;-1.066;2023-05-07T05:02:39;37.22;;;16.85;;
35558;SDS011;21661;50.794;-1.066;2023-05-07T05:05:05;38.42;;;16.60;;
35558;SDS011;21661;50.794;-1.066;2023-05-07T05:07:31;38.17;;;16.08;;
35558;SDS011;21661;50.794;-1.066;2023-05-07T05:09:57;38.80;;;15.77;;
35558;SDS011;21661;50.794;-1.066;2023-05-07T05:12:23;35.60;;;14.77;;
35558;SDS011;21661;50.794;-1.066;2023-05-07T05:14:48;33.78;;;14.77;;
35558;SDS011;21661;50.794;-1.066;2023-05-07T05:17:14;29.88;;;13.13;;
35558;SDS011;21661;50.794;-1.066;2023-05-07T05:19:40;30.98;;;14.32;;
35558;SDS011;21661;50.794;-1.066;2023-05-07T05:22:05;30.77;;;14.18;;
35558;SDS011;21661;50.794;-1.066;2023-05-07T05:24:31;32.72;;;14.23;;
35558;SDS011;21661;50.794;-1.066;2023-05-07T05:26:57;38.03;;;14.18;;
35558;SDS011;21661;50.794;-1.066;2023-05-07T05:29:24;31.13;;;13.20;;
35558;SDS011;21661;50.794;-1.066;2023-05-07T05:31:50;30.85;;;12.52;;
35558;SDS011;21661;50.794;-1.066;2023-05-07T05:34:15;37.03;;;14.73;;
35558;SDS011;21661;50.794;-1.066;2023-05-07T05:36:42;29.92;;;12.57;;
35558;SDS011;21661;50.794;-1.066;2023-05-07T05:39:08;30.02;;;13.05;;
35558;SDS011;21661;50.794;-1.066;2023-05-07T05:41:34;27.85;;;12.48;;
35558;SDS011;21661;50.794;-1.066;2023-05-07T05:43:59;30.10;;;12.32;;
35558;SDS011;21661;50.794;-1.066;2023-05-07T05:46:25;24.65;;;11.93;;
35558;SDS011;21661;50.794;-1.066;2023-05-07T05:48:50;27.10;;;11.60;;
35558;SDS011;21661;50.794;-1.066;2023-05-07T05:51:16;27.52;;;12.30;;
35558;SDS011;21661;50.794;-1.066;2023-05-07T05:53:42;30.63;;;13.10;;
35558;SDS011;21661;50.794;-1.066;2023-05-07T05:56:07;34.58;;;14.30;;
35558;SDS011;21661;50.794;-1.066;2023-05-07T05:58:33;34.00;;;14.38;;
35558;SDS011;21661;50.794;-1.066;2023-05-07T06:00:59;33.97;;;14.30;;
35558;SDS011;21661;50.794;-1.066;2023-05-07T06:03:25;36.65;;;14.57;;
35558;SDS011;21661;50.794;-1.066;2023-05-07T06:05:51;30.42;;;13.45;;
35558;SDS011;21661;50.794;-1.066;2023-05-07T06:08:16;29.25;;;14.10;;
35558;SDS011;21661;50.794;-1.066;2023-05-07T06:10:43;36.53;;;15.20;;
35558;SDS011;21661;50.794;-1.066;2023-05-07T06:13:09;32.95;;;13.60;;
35558;SDS011;21661;50.794;-1.066;2023-05-07T06:15:34;34.05;;;12.63;;
35558;SDS011;21661;50.794;-1.066;2023-05-07T06:18:00;32.03;;;13.13;;
35558;SDS011;21661;50.794;-1.066;2023-05-07T06:20:25;29.42;;;11.90;;
35558;SDS011;21661;50.794;-1.066;2023-05-07T06:22:51;40.85;;;13.68;;
35558;SDS011;21661;50.794;-1.066;2023-05-07T06:25:16;38.03;;;13.32;;
35558;SDS011;21661;50.794;-1.066;2023-05-07T06:27:42;41.55;;;13.52;;
35558;SDS011;21661;50.794;-1.066;2023-05-07T06:30:08;32.17;;;12.85;;
35558;SDS011;21661;50.794;-1.066;2023-05-07T06:32:34;38.80;;;12.85;;
35558;SDS011;21661;50.794;-1.066;2023-05-07T06:34:59;34.83;;;12.25;;
35558;SDS011;21661;50.794;-1.066;2023-05-07T06:37:25;35.63;;;12.95;;
35558;SDS011;21661;50.794;-1.066;2023-05-07T06:39:50;35.85;;;12.90;;
35558;SDS011;21661;50.794;-1.066;2023-05-07T06:42:16;38.70;;;12.07;;
35558;SDS011;21661;50.794;-1.066;2023-05-07T06:44:42;34.72;;;13.02;;
35558;SDS011;21661;50.794;-1.066;2023-05-07T06:47:07;37.72;;;12.68;;
35558;SDS011;21661;50.794;-1.066;2023-05-07T06:49:33;38.72;;;12.88;;
35558;SDS011;21661;50.794;-1.066;2023-05-07T06:51:58;35.10;;;13.23;;
35558;SDS011;21661;50.794;-1.066;2023-05-07T06:54:24;40.17;;;14.20;;
35558;SDS011;21661;50.794;-1.066;2023-05-07T06:56:50;36.83;;;13.27;;
35558;SDS011;21661;50.794;-1.066;2023-05-07T06:59:15;35.28;;;12.70;;
35558;SDS011;21661;50.794;-1.066;2023-05-07T07:01:41;36.90;;;14.07;;
35558;SDS011;21661;50.794;-1.066;2023-05-07T07:04:07;36.15;;;13.13;;
35558;SDS011;21661;50.794;-1.066;2023-05-07T07:06:32;41.00;;;13.43;;
35558;SDS011;21661;50.794;-1.066;2023-05-07T07:08:58;39.53;;;15.23;;
35558;SDS011;21661;50.794;-1.066;2023-05-07T07:11:27;37.63;;;13.23;;
35558;SDS011;21661;50.794;-1.066;2023-05-07T07:13:53;40.25;;;13.70;;
35558;SDS011;21661;50.794;-1.066;2023-05-07T07:16:19;36.30;;;13.52;;
35558;SDS011;21661;50.794;-1.066;2023-05-07T07:18:46;38.10;;;13.30;;
35558;SDS011;21661;50.794;-1.066;2023-05-07T07:21:11;43.67;;;15.55;;
35558;SDS011;21661;50.794;-1.066;2023-05-07T07:23:37;42.28;;;15.82;;
35558;SDS011;21661;50.794;-1.066;2023-05-07T07:26:02;43.63;;;14.68;;
35558;SDS011;21661;50.794;-1.066;2023-05-07T07:28:28;51.78;;;18.40;;
35558;SDS011;21661;50.794;-1.066;2023-05-07T07:30:54;41.90;;;16.45;;
35558;SDS011;21661;50.794;-1.066;2023-05-07T07:33:19;36.10;;;16.10;;
35558;SDS011;21661;50.794;-1.066;2023-05-07T07:35:45;51.08;;;17.98;;
35558;SDS011;21661;50.794;-1.066;2023-05-07T07:38:10;41.42;;;16.50;;
35558;SDS011;21661;50.794;-1.066;2023-05-07T07:40:36;36.45;;;15.65;;
35558;SDS011;21661;50.794;-1.066;2023-05-07T07:43:02;41.40;;;17.17;;
35558;SDS011;21661;50.794;-1.066;2023-05-07T07:45:27;44.90;;;17.55;;
35558;SDS011;21661;50.794;-1.066;2023-05-07T07:47:54;32.67;;;17.23;;
35558;SDS011;21661;50.794;-1.066;2023-05-07T07:50:19;37.17;;;16.15;;
35558;SDS011;21661;50.794;-1.066;2023-05-07T07:52:45;42.95;;;17.70;;
35558;SDS011;21661;50.794;-1.066;2023-05-07T07:55:11;37.13;;;16.42;;
35558;SDS011;21661;50.794;-1.066;2023-05-07T07:57:37;35.72;;;16.35;;
35558;SDS011;21661;50.794;-1.066;2023-05-07T08:00:03;36.83;;;17.20;;
35558;SDS011;21661;50.794;-1.066;2023-05-07T08:02:31;37.13;;;17.02;;
35558;SDS011;21661;50.794;-1.066;2023-05-07T08:04:56;34.38;;;16.88;;
35558;SDS011;21661;50.794;-1.066;2023-05-07T08:07:22;36.17;;;17.48;;
35558;SDS011;21661;50.794;-1.066;2023-05-07T08:09:47;34.78;;;16.48;;
35558;SDS011;21661;50.794;-1.066;2023-05-07T08:12:13;38.50;;;18.00;;
35558;SDS011;21661;50.794;-1.066;2023-05-07T08:14:39;36.35;;;17.48;;
35558;SDS011;21661;50.794;-1.066;2023-05-07T08:17:05;36.60;;;17.77;;
35558;SDS011;21661;50.794;-1.066;2023-05-07T08:19:31;34.30;;;17.48;;
35558;SDS011;21661;50.794;-1.066;2023-05-07T08:21:57;34.55;;;17.23;;
35558;SDS011;21661;50.794;-1.066;2023-05-07T08:24:22;32.30;;;16.23;;
35558;SDS011;21661;50.794;-1.066;2023-05-07T08:26:48;32.55;;;16.30;;
35558;SDS011;21661;50.794;-1.066;2023-05-07T08:29:14;35.33;;;16.23;;
35558;SDS011;21661;50.794;-1.066;2023-05-07T08:31:40;36.70;;;16.65;;
35558;SDS011;21661;50.794;-1.066;2023-05-07T08:34:05;36.20;;;16.88;;
35558;SDS011;21661;50.794;-1.066;2023-05-07T08:36:31;41.15;;;17.20;;
35558;SDS011;21661;50.794;-1.066;2023-05-07T08:38:57;33.75;;;16.80;;
35558;SDS011;21661;50.794;-1.066;2023-05-07T08:41:24;31.75;;;17.05;;
35558;SDS011;21661;50.794;-1.066;2023-05-07T08:43:50;37.10;;;17.67;;
35558;SDS011;21661;50.794;-1.066;2023-05-07T08:46:20;34.97;;;17.08;;
35558;SDS011;21661;50.794;-1.066;2023-05-07T08:48:50;38.05;;;18.05;;
35558;SDS011;21661;50.794;-1.066;2023-05-07T08:51:17;35.75;;;17.88;;
35558;SDS011;21661;50.794;-1.066;2023-05-07T08:53:45;32.60;;;17.92;;
35558;SDS011;21661;50.794;-1.066;2023-05-07T08:56:13;37.20;;;18.60;;
35558;SDS011;21661;50.794;-1.066;2023-05-07T08:58:40;30.20;;;15.25;;
35558;SDS011;21661;50.794;-1.066;2023-05-07T09:01:08;32.90;;;16.45;;
35558;SDS011;21661;50.794;-1.066;2023-05-07T09:03:37;32.40;;;14.43;;
35558;SDS011;21661;50.794;-1.066;2023-05-07T09:06:04;24.85;;;12.68;;
35558;SDS011;21661;50.794;-1.066;2023-05-07T09:08:29;25.35;;;14.32;;
35558;SDS011;21661;50.794;-1.066;2023-05-07T09:10:57;25.70;;;12.57;;
35558;SDS011;21661;50.794;-1.066;2023-05-07T09:13:22;23.33;;;12.50;;
35558;SDS011;21661;50.794;-1.066;2023-05-07T09:15:48;25.55;;;12.90;;
35558;SDS011;21661;50.794;-1.066;2023-05-07T09:18:14;25.77;;;13.57;;
35558;SDS011;21661;50.794;-1.066;2023-05-07T09:20:40;23.15;;;12.45;;
35558;SDS011;21661;50.794;-1.066;2023-05-07T09:23:06;26.38;;;13.13;;
35558;SDS011;21661;50.794;-1.066;2023-05-07T09:25:34;18.20;;;11.02;;
35558;SDS011;21661;50.794;-1.066;2023-05-07T09:28:01;15.70;;;10.43;;
35558;SDS011;21661;50.794;-1.066;2023-05-07T09:30:28;20.25;;;11.18;;
35558;SDS011;21661;50.794;-1.066;2023-05-07T09:32:58;19.48;;;11.10;;
35558;SDS011;21661;50.794;-1.066;2023-05-07T09:35:25;20.30;;;10.82;;
35558;SDS011;21661;50.794;-1.066;2023-05-07T09:37:54;18.98;;;10.98;;
35558;SDS011;21661;50.794;-1.066;2023-05-07T09:40:22;15.70;;;9.52;;
35558;SDS011;21661;50.794;-1.066;2023-05-07T09:42:49;18.88;;;10.77;;
35558;SDS011;21661;50.794;-1.066;2023-05-07T09:45:15;15.82;;;9.82;;
35558;SDS011;21661;50.794;-1.066;2023-05-07T09:47:42;16.77;;;10.18;;
35558;SDS011;21661;50.794;-1.066;2023-05-07T09:50:13;16.77;;;10.18;;
35558;SDS011;21661;50.794;-1.066;2023-05-07T09:52:40;19.23;;;11.38;;
35558;SDS011;21661;50.794;-1.066;2023-05-07T09:55:06;16.27;;;10.50;;
35558;SDS011;21661;50.794;-1.066;2023-05-07T09:57:33;16.90;;;10.13;;
35558;SDS011;21661;50.794;-1.066;2023-05-07T09:59:59;18.75;;;10.68;;
35558;SDS011;21661;50.794;-1.066;2023-05-07T10:02:29;16.55;;;9.75;;
35558;SDS011;21661;50.794;-1.066;2023-05-07T10:04:56;16.27;;;9.60;;
35558;SDS011;21661;50.794;-1.066;2023-05-07T10:07:25;14.43;;;8.43;;
35558;SDS011;21661;50.794;-1.066;2023-05-07T10:09:51;18.52;;;10.93;;
35558;SDS011;21661;50.794;-1.066;2023-05-07T10:12:18;17.38;;;10.65;;
35558;SDS011;21661;50.794;-1.066;2023-05-07T10:14:46;19.40;;;10.57;;
35558;SDS011;21661;50.794;-1.066;2023-05-07T10:17:13;21.60;;;10.85;;
35558;SDS011;21661;50.794;-1.066;2023-05-07T10:19:40;18.70;;;10.73;;
35558;SDS011;21661;50.794;-1.066;2023-05-07T10:22:07;18.73;;;10.90;;
35558;SDS011;21661;50.794;-1.066;2023-05-07T10:24:33;23.75;;;12.10;;
35558;SDS011;21661;50.794;-1.066;2023-05-07T10:27:01;15.90;;;9.73;;
35558;SDS011;21661;50.794;-1.066;2023-05-07T10:29:52;15.15;;;9.45;;
35558;SDS011;21661;50.794;-1.066;2023-05-07T10:34:48;16.52;;;9.57;;
35558;SDS011;21661;50.794;-1.066;2023-05-07T10:37:18;17.05;;;10.10;;
35558;SDS011;21661;50.794;-1.066;2023-05-07T10:39:44;16.10;;;10.40;;
35558;SDS011;21661;50.794;-1.066;2023-05-07T10:42:10;15.70;;;9.38;;
35558;SDS011;21661;50.794;-1.066;2023-05-07T10:44:37;19.00;;;10.70;;
35558;SDS011;21661;50.794;-1.066;2023-05-07T10:47:12;17.42;;;9.27;;
35558;SDS011;21661;50.794;-1.066;2023-05-07T10:54:37;15.95;;;9.43;;
35558;SDS011;21661;50.794;-1.066;2023-05-07T11:00:01;17.15;;;9.57;;
35558;SDS011;21661;50.794;-1.066;2023-05-07T11:05:30;19.30;;;11.93;;
35558;SDS011;21661;50.794;-1.066;2023-05-07T11:07:57;20.92;;;11.40;;
35558;SDS011;21661;50.794;-1.066;2023-05-07T11:13:13;23.70;;;13.32;;
35558;SDS011;21661;50.794;-1.066;2023-05-07T11:15:48;24.63;;;14.02;;
35558;SDS011;21661;50.794;-1.066;2023-05-07T11:18:15;21.17;;;11.57;;
35558;SDS011;21661;50.794;-1.066;2023-05-07T11:26:02;17.92;;;11.93;;
35558;SDS011;21661;50.794;-1.066;2023-05-07T11:28:39;20.20;;;11.73;;
35558;SDS011;21661;50.794;-1.066;2023-05-07T11:31:07;22.48;;;12.27;;
35558;SDS011;21661;50.794;-1.066;2023-05-07T11:33:34;18.98;;;10.40;;
35558;SDS011;21661;50.794;-1.066;2023-05-07T11:36:00;18.17;;;9.35;;
35558;SDS011;21661;50.794;-1.066;2023-05-07T11:38:28;16.60;;;9.98;;
35558;SDS011;21661;50.794;-1.066;2023-05-07T11:40:58;14.98;;;8.90;;
35558;SDS011;21661;50.794;-1.066;2023-05-07T11:43:29;14.65;;;8.57;;
35558;SDS011;21661;50.794;-1.066;2023-05-07T11:46:04;14.63;;;9.05;;
35558;SDS011;21661;50.794;-1.066;2023-05-07T11:48:31;13.93;;;9.27;;
35558;SDS011;21661;50.794;-1.066;2023-05-07T11:51:01;14.15;;;9.25;;
35558;SDS011;21661;50.794;-1.066;2023-05-07T11:56:00;11.60;;;7.53;;
35558;SDS011;21661;50.794;-1.066;2023-05-07T11:58:30;12.48;;;7.55;;
35558;SDS011;21661;50.794;-1.066;2023-05-07T12:00:56;12.98;;;7.63;;
35558;SDS011;21661;50.794;-1.066;2023-05-07T12:03:22;11.30;;;6.75;;
35558;SDS011;21661;50.794;-1.066;2023-05-07T12:05:47;14.77;;;7.78;;
35558;SDS011;21661;50.794;-1.066;2023-05-07T12:08:16;13.27;;;7.90;;
35558;SDS011;21661;50.794;-1.066;2023-05-07T12:10:44;13.98;;;8.55;;
35558;SDS011;21661;50.794;-1.066;2023-05-07T12:15:51;13.48;;;7.50;;
35558;SDS011;21661;50.794;-1.066;2023-05-07T12:18:17;12.35;;;7.35;;
35558;SDS011;21661;50.794;-1.066;2023-05-07T12:20:43;12.90;;;7.85;;
35558;SDS011;21661;50.794;-1.066;2023-05-07T12:23:10;13.00;;;8.57;;
35558;SDS011;21661;50.794;-1.066;2023-05-07T12:25:36;11.77;;;7.13;;
35558;SDS011;21661;50.794;-1.066;2023-05-07T12:28:08;9.68;;;6.63;;
35558;SDS011;21661;50.794;-1.066;2023-05-07T12:30:38;14.00;;;7.63;;
35558;SDS011;21661;50.794;-1.066;2023-05-07T12:33:04;11.82;;;7.82;;
35558;SDS011;21661;50.794;-1.066;2023-05-07T12:35:31;16.33;;;8.38;;
35558;SDS011;21661;50.794;-1.066;2023-05-07T12:38:00;16.02;;;8.43;;
35558;SDS011;21661;50.794;-1.066;2023-05-07T12:40:42;14.40;;;8.55;;
35558;SDS011;21661;50.794;-1.066;2023-05-07T12:43:19;14.57;;;8.07;;
35558;SDS011;21661;50.794;-1.066;2023-05-07T12:45:46;14.65;;;7.13;;
35558;SDS011;21661;50.794;-1.066;2023-05-07T12:48:14;13.63;;;7.25;;
35558;SDS011;21661;50.794;-1.066;2023-05-07T12:50:39;14.00;;;7.43;;
35558;SDS011;21661;50.794;-1.066;2023-05-07T12:53:06;12.77;;;7.18;;
35558;SDS011;21661;50.794;-1.066;2023-05-07T12:55:46;13.77;;;7.82;;
35558;SDS011;21661;50.794;-1.066;2023-05-07T12:58:16;13.77;;;8.02;;
35558;SDS011;21661;50.794;-1.066;2023-05-07T13:00:43;14.43;;;7.57;;
35558;SDS011;21661;50.794;-1.066;2023-05-07T13:03:10;14.60;;;7.60;;
35558;SDS011;21661;50.794;-1.066;2023-05-07T13:05:36;11.98;;;7.68;;
35558;SDS011;21661;50.794;-1.066;2023-05-07T13:08:02;13.88;;;7.20;;
35558;SDS011;21661;50.794;-1.066;2023-05-07T13:10:27;12.18;;;7.30;;
35558;SDS011;21661;50.794;-1.066;2023-05-07T13:12:53;18.05;;;8.02;;
35558;SDS011;21661;50.794;-1.066;2023-05-07T13:15:19;12.10;;;6.57;;
35558;SDS011;21661;50.794;-1.066;2023-05-07T13:17:45;12.75;;;7.15;;
35558;SDS011;21661;50.794;-1.066;2023-05-07T13:20:11;11.95;;;6.40;;
35558;SDS011;21661;50.794;-1.066;2023-05-07T13:22:37;14.30;;;6.97;;
35558;SDS011;21661;50.794;-1.066;2023-05-07T13:25:04;11.15;;;6.55;;
35558;SDS011;21661;50.794;-1.066;2023-05-07T13:27:30;14.10;;;6.45;;
35558;SDS011;21661;50.794;-1.066;2023-05-07T13:29:56;16.88;;;6.88;;
35558;SDS011;21661;50.794;-1.066;2023-05-07T13:32:22;11.90;;;6.55;;
35558;SDS011;21661;50.794;-1.066;2023-05-07T13:34:47;16.30;;;8.80;;
35558;SDS011;21661;50.794;-1.066;2023-05-07T13:37:13;16.08;;;10.38;;
35558;SDS011;21661;50.794;-1.066;2023-05-07T13:39:39;14.73;;;9.55;;
35558;SDS011;21661;50.794;-1.066;2023-05-07T13:42:05;16.38;;;9.52;;
35558;SDS011;21661;50.794;-1.066;2023-05-07T13:44:31;17.92;;;9.43;;
35558;SDS011;21661;50.794;-1.066;2023-05-07T13:46:57;14.13;;;9.18;;
35558;SDS011;21661;50.794;-1.066;2023-05-07T13:49:22;15.25;;;9.48;;
35558;SDS011;21661;50.794;-1.066;2023-05-07T13:51:49;16.27;;;8.52;;
35558;SDS011;21661;50.794;-1.066;2023-05-07T13:54:14;14.00;;;8.50;;
35558;SDS011;21661;50.794;-1.066;2023-05-07T13:56:40;16.40;;;8.68;;
35558;SDS011;21661;50.794;-1.066;2023-05-07T13:59:06;17.27;;;9.50;;
35558;SDS011;21661;50.794;-1.066;2023-05-07T14:01:32;16.27;;;9.07;;
35558;SDS011;21661;50.794;-1.066;2023-05-07T14:03:57;17.90;;;9.52;;
35558;SDS011;21661;50.794;-1.066;2023-05-07T14:06:24;18.80;;;10.75;;
35558;SDS011;21661;50.794;-1.066;2023-05-07T14:08:50;21.65;;;11.80;;
35558;SDS011;21661;50.794;-1.066;2023-05-07T14:11:16;23.13;;;13.73;;
35558;SDS011;21661;50.794;-1.066;2023-05-07T14:13:41;21.52;;;13.50;;
35558;SDS011;21661;50.794;-1.066;2023-05-07T14:16:07;23.55;;;14.00;;
35558;SDS011;21661;50.794;-1.066;2023-05-07T14:18:32;26.25;;;13.77;;
35558;SDS011;21661;50.794;-1.066;2023-05-07T14:20:59;26.98;;;13.45;;
35558;SDS011;21661;50.794;-1.066;2023-05-07T14:23:25;21.25;;;13.48;;
35558;SDS011;21661;50.794;-1.066;2023-05-07T14:25:52;24.40;;;13.32;;
35558;SDS011;21661;50.794;-1.066;2023-05-07T14:28:18;23.27;;;13.85;;
35558;SDS011;21661;50.794;-1.066;2023-05-07T14:30:44;27.20;;;12.85;;
35558;SDS011;21661;50.794;-1.066;2023-05-07T14:33:09;27.13;;;13.15;;